Time;durP1;ratioP1;P1;durP2;ratioP2;P2;SDS_P1;SDS_P2;PMS_P1;PMS_P2;Temp;Humidity;BMP_temperature;BMP_pressure;BME280_temperature;BME280_humidity;BME280_pressure;Samples;Min_cycle;Max_cycle;Signal;HPM_P1;HPM_P2
2022/02/25 00:00:50;;;;;;;19.27;11.50;;;;;;;6.23;53.50;99920.06;4956349;28;20023;-91
2022/02/25 00:03:15;;;;;;;14.70;11.93;;;;;;;6.20;53.38;99930.81;4956030;28;20037;-91
2022/02/25 00:05:42;;;;;;;15.13;11.18;;;;;;;6.80;53.23;100020.59;4955959;28;20420;-90
2022/02/25 00:08:08;;;;;;;19.40;14.40;;;;;;;6.79;53.36;100026.81;4955714;28;20412;-90
2022/02/25 00:10:34;;;;;;;17.13;13.00;;;;;;;6.79;53.54;100011.91;4973052;28;20055;-90
2022/02/25 00:13:00;;;;;;;19.10;15.10;;;;;;;6.52;53.18;99998.66;4956375;28;20061;-91
2022/02/25 00:15:26;;;;;;;17.17;13.95;;;;;;;5.61;53.42;99845.31;4955696;28;20031;-90
2022/02/25 00:17:51;;;;;;;23.92;16.40;;;;;;;5.46;53.90;99815.28;4955528;28;20063;-91
2022/02/25 00:20:17;;;;;;;24.88;19.08;;;;;;;6.37;54.17;99980.75;4957032;28;20033;-91
2022/02/25 00:22:42;;;;;;;21.15;14.93;;;;;;;6.60;54.01;100019.78;4955071;28;20043;-90
2022/02/25 00:25:10;;;;;;;16.65;13.65;;;;;;;6.55;54.12;100007.09;4955580;28;20038;-91
2022/02/25 00:27:44;;;;;;;16.30;13.57;;;;;;;5.75;53.95;99884.19;4957288;28;20049;-90
2022/02/25 00:30:11;;;;;;;17.45;14.27;;;;;;;6.38;53.80;100000.75;4955998;28;20061;-90
2022/02/25 00:32:37;;;;;;;19.90;14.90;;;;;;;5.54;54.00;99859.94;4973007;28;20034;-91
2022/02/25 00:35:03;;;;;;;16.42;13.40;;;;;;;6.09;54.35;99967.66;4956811;28;20022;-90
2022/02/25 00:37:29;;;;;;;16.33;13.05;;;;;;;5.18;54.06;99798.56;4955543;28;20027;-90
2022/02/25 00:39:54;;;;;;;16.55;13.18;;;;;;;5.95;54.39;99945.34;4973191;28;20166;-91
2022/02/25 00:42:20;;;;;;;20.13;14.23;;;;;;;6.44;54.36;100002.00;4956272;28;20033;-91
2022/02/25 00:44:46;;;;;;;15.40;12.88;;;;;;;6.31;54.18;99983.94;4955814;28;20078;-90
2022/02/25 00:47:11;;;;;;;14.75;11.82;;;;;;;5.77;53.99;99890.13;4973095;28;20019;-90
2022/02/25 00:49:37;;;;;;;13.95;10.77;;;;;;;6.42;53.94;100003.09;4974091;28;20439;-90
2022/02/25 00:52:03;;;;;;;11.68;10.27;;;;;;;6.43;54.06;100000.34;4973151;28;20078;-91
2022/02/25 00:54:28;;;;;;;13.18;10.55;;;;;;;5.51;54.14;99839.25;4955678;28;20110;-91
2022/02/25 00:56:54;;;;;;;14.48;10.20;;;;;;;5.78;53.92;99899.63;4959073;28;20019;-90
2022/02/25 00:59:19;;;;;;;13.50;10.43;;;;;;;6.37;54.17;99996.47;4959746;28;20029;-91
2022/02/25 01:01:46;;;;;;;13.52;10.68;;;;;;;6.05;54.17;99967.13;4959806;28;20477;-91
2022/02/25 01:04:12;;;;;;;11.45;10.00;;;;;;;5.89;53.89;99940.56;4961459;28;20567;-90
2022/02/25 01:06:37;;;;;;;16.60;10.57;;;;;;;5.47;53.73;99879.78;4959708;28;20019;-91
2022/02/25 01:09:03;;;;;;;12.95;10.63;;;;;;;5.99;54.18;99929.19;4959648;28;20014;-91
2022/02/25 01:11:28;;;;;;;17.83;11.52;;;;;;;5.39;53.97;99868.19;4960161;28;20385;-91
2022/02/25 01:13:54;;;;;;;13.85;10.27;;;;;;;5.78;53.93;99935.47;4959063;28;20065;-91
2022/02/25 01:16:20;;;;;;;14.95;10.70;;;;;;;6.20;54.20;99985.88;4976239;28;20023;-90
2022/02/25 01:18:46;;;;;;;14.13;11.70;;;;;;;4.60;54.14;99785.41;4959658;28;20030;-90
2022/02/25 01:21:12;;;;;;;15.30;12.20;;;;;;;5.27;54.44;99829.19;4958597;28;20034;-91
2022/02/25 01:23:37;;;;;;;17.58;12.10;;;;;;;5.38;54.03;99827.25;4958717;28;20512;-90
2022/02/25 01:26:03;;;;;;;15.15;11.13;;;;;;;5.22;54.05;99823.53;4961500;28;20026;-90
2022/02/25 01:28:28;;;;;;;17.85;11.80;;;;;;;5.24;54.04;99834.69;4976357;28;20097;-92
2022/02/25 01:30:54;;;;;;;14.50;11.30;;;;;;;5.82;53.98;99918.50;4959212;28;20178;-91
2022/02/25 01:33:19;;;;;;;16.52;12.40;;;;;;;5.91;54.08;99933.44;4960601;28;20035;-90
2022/02/25 01:35:45;;;;;;;15.68;12.23;;;;;;;5.51;54.01;99868.88;4959261;28;20031;-89
2022/02/25 01:38:10;;;;;;;15.63;12.05;;;;;;;5.59;53.84;99866.41;4961680;28;20102;-89
2022/02/25 01:40:36;;;;;;;15.65;11.98;;;;;;;6.12;53.49;99960.34;4965116;28;20011;-89
2022/02/25 01:43:01;;;;;;;13.95;10.15;;;;;;;5.92;53.58;99940.34;4985636;28;20090;-89
2022/02/25 01:45:28;;;;;;;12.57;9.90;;;;;;;5.98;53.39;99898.69;5002296;28;20086;-90
2022/02/25 01:47:54;;;;;;;13.18;9.93;;;;;;;5.19;53.48;99768.81;5000506;28;20090;-90
2022/02/25 01:50:20;;;;;;;13.90;9.82;;;;;;;5.91;53.31;99874.00;4982617;28;20058;-91
2022/02/25 01:53:01;;;;;;;11.60;8.93;;;;;;;5.33;52.69;99805.91;4983105;28;20010;-92
2022/02/25 01:55:28;;;;;;;12.85;10.13;;;;;;;5.70;53.13;99854.97;4978153;28;20030;-90
2022/02/25 01:57:53;;;;;;;12.60;10.65;;;;;;;5.44;52.98;99812.78;4958291;28;20027;-90
2022/02/25 02:00:20;;;;;;;13.05;9.82;;;;;;;6.32;53.26;99943.63;4958381;28;20030;-90
2022/02/25 02:02:45;;;;;;;14.77;10.32;;;;;;;6.14;53.15;99919.09;4961342;28;20038;-90
2022/02/25 02:05:11;;;;;;;12.95;10.00;;;;;;;5.62;53.15;99855.66;4958239;28;20023;-90
2022/02/25 02:07:36;;;;;;;12.23;10.55;;;;;;;5.47;53.03;99819.53;4957577;28;20065;-90
2022/02/25 02:10:02;;;;;;;11.70;9.35;;;;;;;5.77;53.16;99868.31;4959643;28;20503;-90
2022/02/25 02:12:28;;;;;;;12.95;9.52;;;;;;;5.93;52.76;99915.78;4958072;28;20146;-90
2022/02/25 02:14:53;;;;;;;13.48;10.07;;;;;;;5.90;52.83;99913.44;4957852;28;20039;-91
2022/02/25 02:17:21;;;;;;;10.70;8.55;;;;;;;6.22;53.06;99936.75;4959226;28;20170;-90
2022/02/25 02:19:47;;;;;;;11.13;8.88;;;;;;;6.16;53.15;99940.75;4957938;28;20030;-90
2022/02/25 02:22:13;;;;;;;12.05;9.43;;;;;;;5.35;52.57;99808.38;4957896;28;20543;-90
2022/02/25 02:24:38;;;;;;;11.82;8.85;;;;;;;5.39;52.24;99809.75;4976159;28;20653;-89
2022/02/25 02:27:04;;;;;;;11.68;8.88;;;;;;;5.96;52.63;99921.59;4970388;28;20030;-89
2022/02/25 02:29:29;;;;;;;14.57;10.77;;;;;;;5.63;52.75;99859.91;4971721;28;20026;-89
2022/02/25 02:31:55;;;;;;;11.35;9.57;;;;;;;6.08;52.66;99919.66;4981085;28;20026;-90
2022/02/25 02:34:20;;;;;;;12.77;8.73;;;;;;;6.23;52.56;99935.78;4980933;28;20026;-89
2022/02/25 02:36:47;;;;;;;11.40;8.25;;;;;;;5.24;52.11;99808.53;4957961;28;20052;-90
2022/02/25 02:39:12;;;;;;;10.82;8.13;;;;;;;4.86;52.26;99709.88;4976056;28;20027;-91
2022/02/25 02:41:39;;;;;;;11.55;8.73;;;;;;;6.25;52.34;99953.03;4957856;28;20022;-90
2022/02/25 02:44:04;;;;;;;11.45;8.52;;;;;;;6.24;52.11;99934.81;4957674;28;20084;-90
2022/02/25 02:46:30;;;;;;;12.43;8.90;;;;;;;5.67;52.05;99855.22;4959815;28;20451;-91
2022/02/25 02:48:56;;;;;;;10.43;8.48;;;;;;;6.13;52.36;99925.31;4957773;28;20044;-90
2022/02/25 02:51:21;;;;;;;10.68;8.32;;;;;;;5.35;52.09;99800.53;4974961;28;20113;-91
2022/02/25 02:53:47;;;;;;;9.90;7.93;;;;;;;5.98;52.22;99890.00;4957583;28;20106;-90
2022/02/25 02:56:13;;;;;;;9.82;8.02;;;;;;;6.17;52.25;99938.97;4958858;28;20034;-90
2022/02/25 02:58:38;;;;;;;11.50;7.88;;;;;;;6.04;52.40;99898.13;4957433;28;20030;-91
2022/02/25 03:01:04;;;;;;;10.63;8.88;;;;;;;6.18;52.19;99920.47;4974509;28;20492;-91
2022/02/25 03:03:30;;;;;;;10.90;8.82;;;;;;;5.31;52.27;99807.84;4957956;28;20031;-90
2022/02/25 03:05:55;;;;;;;10.38;8.10;;;;;;;5.57;51.97;99842.16;4957285;28;20031;-91
2022/02/25 03:08:21;;;;;;;9.88;8.05;;;;;;;6.27;52.24;99945.03;4957131;28;20490;-91
2022/02/25 03:10:47;;;;;;;10.40;8.95;;;;;;;6.26;51.74;99931.09;4959253;28;20082;-91
2022/02/25 03:13:14;;;;;;;9.63;8.43;;;;;;;6.23;51.98;99923.50;4957116;28;20031;-90
2022/02/25 03:15:41;;;;;;;11.93;9.70;;;;;;;5.79;52.17;99871.63;4956818;28;20492;-90
2022/02/25 03:18:06;;;;;;;10.93;9.00;;;;;;;5.80;52.47;99875.91;4957533;28;20019;-90
2022/02/25 03:20:32;;;;;;;10.52;9.07;;;;;;;5.27;52.22;99785.50;4956011;28;20031;-89
2022/02/25 03:22:58;;;;;;;11.80;8.55;;;;;;;5.28;52.13;99831.69;4956772;28;20106;-90
2022/02/25 03:25:24;;;;;;;9.93;8.63;;;;;;;5.91;52.18;99920.34;4959552;28;20041;-89
2022/02/25 03:27:49;;;;;;;10.88;9.40;;;;;;;6.02;52.30;99933.31;4974632;28;20029;-91
2022/02/25 03:30:16;;;;;;;17.90;10.33;;;;;;;5.76;52.39;99914.66;4957060;28;20490;-90
2022/02/25 03:32:42;;;;;;;13.63;10.65;;;;;;;5.94;52.41;99954.13;4959505;28;20404;-91
2022/02/25 03:35:10;;;;;;;11.63;9.85;;;;;;;5.13;52.66;99814.69;4957086;28;20046;-91
2022/02/25 03:37:35;;;;;;;12.57;10.25;;;;;;;5.08;52.89;99822.13;4957054;28;20019;-91
2022/02/25 03:40:01;;;;;;;13.80;10.90;;;;;;;5.86;52.94;99964.44;4974189;28;20077;-91
2022/02/25 03:42:27;;;;;;;12.75;10.32;;;;;;;4.43;52.94;99743.25;4958601;28;20088;-90
2022/02/25 03:44:52;;;;;;;13.43;11.23;;;;;;;4.29;52.83;99706.19;4956956;28;20529;-90
2022/02/25 03:47:18;;;;;;;14.80;12.13;;;;;;;4.67;53.01;99763.81;4973608;28;20015;-90
2022/02/25 03:49:44;;;;;;;13.25;11.60;;;;;;;5.07;53.20;99837.00;4958412;28;20030;-89
2022/02/25 03:52:09;;;;;;;13.60;11.43;;;;;;;4.72;53.42;99805.25;4956993;28;20027;-90
2022/02/25 03:54:35;;;;;;;17.13;11.90;;;;;;;5.02;53.35;99831.34;4956956;28;20041;-90
2022/02/25 03:57:01;;;;;;;14.73;11.07;;;;;;;4.41;53.31;99755.63;4957362;28;20511;-90
2022/02/25 03:59:27;;;;;;;14.43;11.27;;;;;;;4.84;53.38;99821.66;4956447;28;20081;-90
2022/02/25 04:01:52;;;;;;;15.57;11.43;;;;;;;4.61;53.69;99763.53;4973802;28;20571;-90
2022/02/25 04:05:11;;;;;;;17.73;12.13;;;;;;;5.64;53.32;99921.81;4956896;28;20023;-90
2022/02/25 04:07:41;;;;;;;18.70;13.23;;;;;;;4.13;53.71;99719.75;4972950;28;20473;-89
2022/02/25 04:10:07;;;;;;;15.90;11.17;;;;;;;4.42;53.60;99777.34;4973840;28;20101;-90
2022/02/25 04:12:33;;;;;;;17.47;11.63;;;;;;;5.21;53.68;99914.34;4973914;28;20177;-90
2022/02/25 04:14:58;;;;;;;15.70;12.50;;;;;;;4.51;53.80;99767.91;4974854;28;20508;-90
2022/02/25 04:17:24;;;;;;;15.98;10.48;;;;;;;5.17;53.49;99901.63;4973685;28;20077;-89
2022/02/25 04:19:49;;;;;;;23.20;13.60;;;;;;;4.98;53.83;99852.69;4956349;28;20105;-90
2022/02/25 04:22:14;;;;;;;29.83;17.02;;;;;;;3.04;53.27;99548.09;4974869;28;20096;-88
2022/02/25 04:24:40;;;;;;;24.33;15.77;;;;;;;3.50;53.55;99665.06;4956637;28;20089;-89
2022/02/25 04:27:06;;;;;;;18.40;12.63;;;;;;;5.19;53.43;99942.41;4956442;28;20052;-90
2022/02/25 04:29:31;;;;;;;20.90;13.80;;;;;;;5.19;53.82;99938.94;4974360;28;20019;-90
2022/02/25 04:31:57;;;;;;;22.40;13.20;;;;;;;3.41;53.59;99651.97;4976474;28;20085;-90
2022/02/25 04:34:22;;;;;;;20.80;13.70;;;;;;;3.14;53.80;99608.97;4974473;28;20034;-88
2022/02/25 04:36:48;;;;;;;20.33;13.57;;;;;;;3.63;53.74;99701.38;4976447;28;20033;-87
2022/02/25 04:39:14;;;;;;;24.03;13.90;;;;;;;4.09;53.82;99781.91;4979234;28;20034;-88
2022/02/25 04:41:41;;;;;;;26.27;16.60;;;;;;;4.28;53.91;99866.59;4980720;28;20078;-87
2022/02/25 04:44:06;;;;;;;23.40;14.97;;;;;;;3.17;53.88;99623.53;4978674;28;20022;-87
2022/02/25 04:46:32;;;;;;;24.03;14.13;;;;;;;3.81;54.08;99718.13;4978430;28;20019;-88
2022/02/25 04:48:58;;;;;;;19.37;12.37;;;;;;;4.61;53.73;99842.81;4977140;28;20027;-90
2022/02/25 04:51:23;;;;;;;19.90;13.37;;;;;;;3.46;53.53;99678.50;4974959;28;20388;-85
2022/02/25 04:53:49;;;;;;;15.70;11.33;;;;;;;3.54;53.63;99665.63;4974726;28;20550;-90
2022/02/25 04:56:15;;;;;;;19.53;13.20;;;;;;;3.39;53.28;99627.78;4973591;28;20018;-89
2022/02/25 04:58:41;;;;;;;20.27;14.00;;;;;;;3.67;53.34;99675.84;4973537;28;20512;-89
2022/02/25 05:01:07;;;;;;;17.60;13.30;;;;;;;3.71;53.20;99688.50;4973535;28;20058;-89
2022/02/25 05:03:32;;;;;;;22.70;15.30;;;;;;;3.94;53.35;99743.22;4975660;28;20484;-89
2022/02/25 05:05:58;;;;;;;26.43;17.90;;;;;;;3.56;53.27;99726.38;4956418;28;20062;-89
2022/02/25 05:08:24;;;;;;;20.23;14.00;;;;;;;4.31;52.95;99777.47;4973788;28;20022;-89
2022/02/25 05:10:50;;;;;;;22.00;14.80;;;;;;;4.24;53.24;99765.88;4974840;28;20026;-88
2022/02/25 05:13:15;;;;;;;20.63;13.50;;;;;;;3.18;52.92;99623.41;4973666;28;20507;-90
2022/02/25 05:21:09;;;;;;;21.83;14.07;;;;;;;5.19;52.95;99960.72;4978040;28;20037;-90
2022/02/25 05:23:34;;;;;;;21.73;14.23;;;;;;;3.24;53.00;99649.94;4974833;28;20043;-90
2022/02/25 05:25:59;;;;;;;18.90;12.73;;;;;;;3.66;52.84;99687.25;4957776;28;20111;-89
2022/02/25 05:28:25;;;;;;;19.57;12.83;;;;;;;3.48;52.82;99685.25;4974120;28;20022;-90
2022/02/25 05:30:51;;;;;;;17.47;13.03;;;;;;;3.67;52.88;99691.50;4956999;28;20157;-89
2022/02/25 05:33:16;;;;;;;20.73;13.27;;;;;;;3.95;52.91;99763.16;4974540;28;20053;-88
2022/02/25 05:35:42;;;;;;;16.87;12.60;;;;;;;3.34;52.70;99653.44;4960461;28;20030;-88
2022/02/25 05:38:07;;;;;;;18.23;12.40;;;;;;;4.12;52.46;99750.28;4974187;28;20150;-91
2022/02/25 05:40:33;;;;;;;14.40;11.37;;;;;;;3.93;52.52;99734.53;4973709;28;20063;-90
2022/02/25 05:43:00;;;;;;;17.50;11.43;;;;;;;4.05;52.32;99798.81;4975083;28;20397;-90
2022/02/25 05:45:26;;;;;;;17.07;12.10;;;;;;;4.97;52.88;99953.91;4977405;28;20030;-88
2022/02/25 05:47:52;;;;;;;15.73;10.47;;;;;;;4.92;52.57;99932.53;4962728;28;20033;-87
2022/02/25 05:50:19;;;;;;;19.47;13.73;;;;;;;4.02;53.03;99832.22;4980451;28;20147;-87
2022/02/25 05:52:46;;;;;;;16.37;12.07;;;;;;;4.42;52.95;99851.38;4978960;28;20034;-89
2022/02/25 05:55:13;;;;;;;19.23;13.57;;;;;;;3.49;52.56;99688.69;4983660;28;20031;-88
2022/02/25 05:57:38;;;;;;;16.77;13.23;;;;;;;4.43;52.80;99871.34;4981676;28;20024;-90
2022/02/25 06:00:06;;;;;;;23.70;13.93;;;;;;;3.26;52.30;99671.50;4981757;28;20034;-89
2022/02/25 06:02:33;;;;;;;17.37;13.20;;;;;;;3.85;52.36;99730.94;4962431;28;20092;-90
2022/02/25 06:04:59;;;;;;;23.10;13.93;;;;;;;3.18;52.30;99614.75;4961416;28;20037;-90
2022/02/25 06:07:24;;;;;;;20.30;13.40;;;;;;;4.11;52.35;99768.72;4977848;28;20023;-88
2022/02/25 06:09:50;;;;;;;21.33;13.87;;;;;;;3.09;52.21;99634.63;4977545;28;20031;-90
2022/02/25 06:12:15;;;;;;;21.33;13.33;;;;;;;4.67;52.10;99893.75;4977079;28;20062;-88
2022/02/25 06:14:41;;;;;;;21.30;13.97;;;;;;;4.43;52.25;99849.59;4977027;28;20117;-90
2022/02/25 06:17:06;;;;;;;18.80;13.40;;;;;;;3.92;51.86;99747.75;4985124;28;20054;-89
2022/02/25 06:19:32;;;;;;;19.77;14.03;;;;;;;4.50;52.49;99832.44;4987003;28;20479;-89
2022/02/25 06:21:57;;;;;;;18.90;13.77;;;;;;;4.00;51.70;99753.13;4959475;28;20504;-89
2022/02/25 06:24:23;;;;;;;23.83;15.53;;;;;;;4.82;51.92;99840.13;4976810;28;20031;-90
2022/02/25 06:26:48;;;;;;;19.60;12.87;;;;;;;4.52;51.84;99845.41;4980531;28;20062;-90
2022/02/25 06:29:14;;;;;;;18.67;11.77;;;;;;;5.18;51.83;99882.34;4976740;28;20027;-89
2022/02/25 06:31:39;;;;;;;15.20;11.23;;;;;;;4.93;51.95;99891.50;4959678;28;20067;-90
2022/02/25 06:34:06;;;;;;;14.27;11.57;;;;;;;3.87;51.84;99676.78;4995399;28;20133;-89
2022/02/25 06:36:31;;;;;;;16.33;10.30;;;;;;;5.18;51.86;99883.16;5003849;28;20019;-89
2022/02/25 06:38:57;;;;;;;15.63;10.13;;;;;;;3.96;51.55;99670.75;5020767;28;20074;-85
2022/02/25 06:41:23;;;;;;;15.03;10.23;;;;;;;4.88;51.74;99838.75;4988212;28;20115;-90
2022/02/25 06:43:49;;;;;;;13.50;9.30;;;;;;;5.64;51.55;99962.91;4978767;28;20087;-90
2022/02/25 06:46:15;;;;;;;15.20;9.70;;;;;;;5.59;51.56;99981.66;4978013;28;20081;-90
2022/02/25 06:48:43;;;;;;;17.63;11.27;;;;;;;5.10;51.43;99867.31;4976881;28;20031;-91
2022/02/25 06:51:09;;;;;;;22.17;13.40;;;;;;;5.43;51.74;99921.94;4957348;28;20027;-91
2022/02/25 06:53:36;;;;;;;21.70;14.93;;;;;;;5.37;51.78;99919.03;4972892;28;20416;-92
2022/02/25 06:56:04;;;;;;;19.77;12.93;;;;;;;5.18;51.90;99870.06;4969146;28;20011;-91
2022/02/25 06:58:30;;;;;;;15.97;10.80;;;;;;;5.73;51.60;99959.47;4963253;28;20101;-92
2022/02/25 07:00:56;;;;;;;14.27;11.27;;;;;;;5.27;51.53;99887.63;4958002;28;20499;-93
2022/02/25 07:03:22;;;;;;;10.60;7.03;;;;;;;4.96;51.72;99857.22;4970880;28;20411;-92
2022/02/25 07:05:47;;;;;;;12.77;8.10;;;;;;;5.11;51.43;99859.31;4978012;28;20400;-93
2022/02/25 07:08:13;;;;;;;10.57;6.03;;;;;;;5.26;50.74;99867.63;4973990;28;20026;-93
2022/02/25 07:10:39;;;;;;;13.77;9.43;;;;;;;5.16;51.01;99839.75;4973783;28;20078;-89
2022/02/25 07:13:07;;;;;;;13.38;8.35;;;;;;;6.21;50.52;99962.13;5000055;28;20026;-91
2022/02/25 07:15:33;;;;;;;13.07;8.33;;;;;;;6.35;50.18;99956.47;4979403;28;20069;-89
2022/02/25 07:17:59;;;;;;;11.30;7.88;;;;;;;6.24;50.15;99934.81;4964330;28;20069;-91
2022/02/25 07:20:25;;;;;;;10.05;6.45;;;;;;;5.52;50.00;99812.94;4962510;28;20467;-90
2022/02/25 07:22:50;;;;;;;9.43;5.30;;;;;;;6.41;49.17;99959.50;4956841;28;20082;-91
2022/02/25 07:25:16;;;;;;;9.90;6.32;;;;;;;6.20;49.54;99925.56;4947016;28;20088;-92
2022/02/25 07:27:43;;;;;;;7.68;6.60;;;;;;;6.55;49.43;99966.91;4974681;28;20019;-90
2022/02/25 07:30:10;;;;;;;8.63;6.43;;;;;;;6.59;48.84;99958.63;4954081;28;20030;-92
2022/02/25 07:32:36;;;;;;;10.25;7.40;;;;;;;5.94;49.33;99852.75;4954039;28;20094;-90
2022/02/25 07:35:03;;;;;;;10.23;7.27;;;;;;;6.53;49.46;99938.19;4970477;28;20101;-91
2022/02/25 07:37:29;;;;;;;10.75;7.00;;;;;;;6.74;49.33;99984.44;4946216;28;20561;-91
2022/02/25 07:39:54;;;;;;;10.65;8.02;;;;;;;6.18;49.43;99899.50;4949287;28;20026;-91
2022/02/25 07:42:21;;;;;;;9.57;6.95;;;;;;;6.85;49.13;99979.81;4958749;28;20019;-91
2022/02/25 07:44:47;;;;;;;9.45;6.18;;;;;;;6.10;48.70;99888.06;4957044;28;20026;-91
2022/02/25 07:47:12;;;;;;;7.55;5.00;;;;;;;6.66;48.57;99951.00;4956354;28;20575;-91
2022/02/25 07:49:38;;;;;;;7.18;5.18;;;;;;;6.94;48.07;99972.88;4953420;28;20475;-91
2022/02/25 07:52:04;;;;;;;7.20;5.10;;;;;;;7.00;48.19;99983.63;4972552;28;20030;-91
2022/02/25 07:54:31;;;;;;;7.13;5.80;;;;;;;6.96;47.54;99978.81;4972793;28;20030;-91
2022/02/25 07:56:57;;;;;;;5.97;4.70;;;;;;;7.05;47.94;99990.25;4961406;28;20492;-92
2022/02/25 07:59:23;;;;;;;6.78;4.93;;;;;;;7.16;47.82;99992.69;4955898;28;20038;-92
2022/02/25 08:01:48;;;;;;;5.90;4.35;;;;;;;6.86;47.49;99955.25;4949174;28;20030;-93
2022/02/25 08:04:14;;;;;;;8.40;5.78;;;;;;;6.60;47.32;99897.31;4956932;28;20019;-92
2022/02/25 08:06:42;;;;;;;9.13;6.07;;;;;;;6.88;47.46;99931.47;4956522;28;20038;-92
2022/02/25 08:09:11;;;;;;;4.95;4.32;;;;;;;6.85;47.50;99927.34;4962531;28;20471;-91
2022/02/25 08:11:36;;;;;;;5.55;4.30;;;;;;;7.46;47.44;99978.47;4970137;28;20035;-90
2022/02/25 08:14:02;;;;;;;6.07;4.68;;;;;;;6.82;47.04;99861.19;4966217;28;20027;-90
2022/02/25 08:16:27;;;;;;;5.25;4.07;;;;;;;7.44;46.61;99959.41;4955883;28;20489;-91
2022/02/25 08:18:53;;;;;;;6.50;4.07;;;;;;;7.06;46.38;99884.25;4952224;28;20030;-91
2022/02/25 08:21:18;;;;;;;6.60;4.85;;;;;;;7.41;46.04;99931.59;4972942;28;20019;-90
2022/02/25 08:23:43;;;;;;;9.85;5.38;;;;;;;7.42;46.13;99909.59;4955768;28;21035;-90
2022/02/25 08:26:09;;;;;;;7.18;5.45;;;;;;;7.09;46.27;99850.66;4938172;29;20034;-91
2022/02/25 08:28:35;;;;;;;7.13;5.18;;;;;;;7.64;45.77;99929.38;4964554;28;20452;-91
2022/02/25 08:31:00;;;;;;;6.00;3.85;;;;;;;6.65;45.43;99790.13;4963109;28;20412;-91
2022/02/25 08:33:26;;;;;;;7.95;5.05;;;;;;;7.57;45.55;99891.53;4955917;28;20093;-90
2022/02/25 08:35:52;;;;;;;7.25;5.38;;;;;;;7.56;45.31;99882.00;4955506;28;20037;-89
2022/02/25 08:38:17;;;;;;;5.38;4.25;;;;;;;8.02;45.05;99928.25;4953798;28;20018;-90
2022/02/25 08:40:43;;;;;;;8.50;6.05;;;;;;;8.08;44.72;99937.31;4953582;29;20412;-91
2022/02/25 08:43:09;;;;;;;8.75;5.30;;;;;;;8.36;44.89;99956.50;4956249;28;20070;-91
2022/02/25 08:45:35;;;;;;;8.00;5.53;;;;;;;8.18;45.11;99933.66;4963818;28;20385;-91
2022/02/25 08:48:04;;;;;;;5.35;4.25;;;;;;;8.28;44.49;99923.03;4971574;28;20065;-91
2022/02/25 08:50:29;;;;;;;6.18;3.50;;;;;;;7.48;44.43;99814.47;4955854;28;20026;-91
2022/02/25 08:52:55;;;;;;;6.15;4.30;;;;;;;7.50;44.32;99770.47;4968939;28;20023;-90
2022/02/25 08:55:22;;;;;;;6.70;4.47;;;;;;;7.84;44.33;99848.56;4939450;28;20050;-91
2022/02/25 08:57:48;;;;;;;6.78;4.30;;;;;;;8.42;44.51;99898.81;4965741;28;20118;-90
2022/02/25 09:00:19;;;;;;;9.00;5.32;;;;;;;8.65;44.08;99935.97;4967915;28;20038;-88
2022/02/25 09:02:45;;;;;;;;;;;;;;;8.67;43.63;99948.97;4954884;28;20030;-90
2022/02/25 09:05:11;;;;;;;9.50;6.20;;;;;;;8.77;44.34;99941.78;4947960;28;19973;-89
2022/02/25 09:07:37;;;;;;;8.13;5.18;;;;;;;7.87;44.13;99769.41;4968368;28;20029;-88
2022/02/25 09:10:05;;;;;;;9.57;6.13;;;;;;;8.57;44.53;99878.03;4951998;28;20027;-88
2022/02/25 09:12:31;;;;;;;8.32;5.65;;;;;;;9.07;43.91;99953.66;4970884;28;20030;-91
2022/02/25 09:14:57;;;;;;;5.97;3.92;;;;;;;8.73;43.54;99875.47;4955396;28;20106;-88
2022/02/25 09:17:22;;;;;;;5.82;4.65;;;;;;;9.18;43.43;99924.38;4955450;28;20040;-88
2022/02/25 09:19:48;;;;;;;7.38;5.13;;;;;;;8.39;43.64;99814.94;4957772;28;20041;-89
2022/02/25 09:22:14;;;;;;;5.50;4.15;;;;;;;8.55;43.45;99809.75;4973955;28;20039;-88
2022/02/25 09:24:40;;;;;;;5.63;4.43;;;;;;;8.93;43.24;99865.53;4957637;28;21001;-90
2022/02/25 09:27:05;;;;;;;6.75;4.50;;;;;;;8.98;43.14;99872.94;4974775;28;20031;-91
2022/02/25 09:29:31;;;;;;;4.95;3.85;;;;;;;8.66;42.70;99795.47;4975573;28;20031;-89
2022/02/25 09:31:56;;;;;;;5.03;4.50;;;;;;;9.60;42.74;99915.59;4973601;28;20142;-89
2022/02/25 09:34:22;;;;;;;5.57;3.80;;;;;;;9.17;42.74;99856.88;4947587;28;20031;-88
2022/02/25 09:36:47;;;;;;;6.57;4.28;;;;;;;9.48;42.50;99868.44;4957569;28;20041;-89
2022/02/25 09:39:13;;;;;;;5.18;3.70;;;;;;;9.94;42.42;99918.09;4974067;28;20442;-89
2022/02/25 09:41:40;;;;;;;5.07;3.70;;;;;;;9.49;41.46;99819.19;4957107;28;20097;-87
2022/02/25 09:44:06;;;;;;;4.18;3.03;;;;;;;8.83;41.64;99698.94;4955793;28;20026;-89
2022/02/25 09:46:32;;;;;;;6.05;3.65;;;;;;;9.81;40.79;99834.22;4957666;28;20031;-89
2022/02/25 09:48:58;;;;;;;4.43;2.90;;;;;;;9.48;40.73;99775.38;4957154;28;20125;-88
2022/02/25 09:51:24;;;;;;;5.07;3.42;;;;;;;9.20;40.56;99715.13;4957559;28;20109;-88
2022/02/25 09:53:49;;;;;;;4.40;2.90;;;;;;;10.48;39.98;99880.50;4959736;28;20480;-89
2022/02/25 09:56:15;;;;;;;4.50;3.90;;;;;;;10.55;39.90;99880.66;4952715;28;20062;-89
2022/02/25 09:58:41;;;;;;;9.45;6.25;;;;;;;10.52;40.14;99870.44;4950905;28;20118;-87
2022/02/25 10:01:07;;;;;;;7.40;4.97;;;;;;;8.91;39.26;99610.25;4958714;28;20029;-88
2022/02/25 10:03:35;;;;;;;4.95;3.40;;;;;;;9.83;39.01;99751.31;4974382;28;20067;-87
2022/02/25 10:06:10;;;;;;;4.43;3.60;;;;;;;10.68;37.92;99851.88;4954664;29;20031;-88
2022/02/25 10:08:36;;;;;;;4.75;3.38;;;;;;;10.69;39.22;99826.31;4955894;29;20026;-87
2022/02/25 10:11:03;;;;;;;3.83;3.13;;;;;;;11.07;39.20;99867.72;4979004;28;20083;-90
2022/02/25 10:13:32;;;;;;;7.97;4.93;;;;;;;10.54;38.98;99767.28;4953710;29;20031;-88
2022/02/25 10:16:08;;;;;;;4.40;3.70;;;;;;;10.68;38.37;99790.31;4964910;28;20034;-89
2022/02/25 10:18:34;;;;;;;5.00;3.60;;;;;;;11.41;38.50;99864.72;4947956;29;20496;-91
2022/02/25 10:21:21;;;;;;;4.60;3.60;;;;;;;11.38;37.07;99837.81;4956244;28;20054;-88
2022/02/25 10:23:47;;;;;;;4.55;3.28;;;;;;;10.51;37.72;99683.97;4953335;28;20050;-87
2022/02/25 10:26:14;;;;;;;5.90;3.67;;;;;;;11.70;36.90;99856.09;4955075;28;20035;-88
2022/02/25 10:28:43;;;;;;;4.07;3.35;;;;;;;11.58;36.67;99817.03;4948493;29;20023;-87
2022/02/25 10:31:30;;;;;;;4.78;3.75;;;;;;;11.83;36.69;99849.41;4947318;28;20024;-87
2022/02/25 10:33:59;;;;;;;5.78;4.40;;;;;;;11.84;36.57;99816.66;4951836;28;20088;-87
2022/02/25 10:36:44;;;;;;;5.18;3.35;;;;;;;11.85;36.77;99802.44;4969919;28;20026;-87
2022/02/25 10:39:12;;;;;;;6.57;5.25;;;;;;;12.22;36.37;99822.75;4963186;28;20580;-87
2022/02/25 10:41:38;;;;;;;5.18;3.17;;;;;;;12.36;36.20;99828.06;4952372;28;20026;-87
2022/02/25 10:44:04;;;;;;;5.65;4.53;;;;;;;11.69;35.77;99702.88;4950648;28;20503;-87
2022/02/25 10:46:29;;;;;;;5.93;3.58;;;;;;;12.33;35.32;99804.59;4973424;28;20145;-87
2022/02/25 10:49:08;;;;;;;5.03;3.75;;;;;;;12.64;34.89;99819.50;4951376;28;20037;-87
2022/02/25 10:51:36;;;;;;;5.20;4.15;;;;;;;12.79;35.09;99830.06;4955741;28;20029;-87
2022/02/25 10:54:04;;;;;;;6.20;3.70;;;;;;;12.52;34.75;99771.44;4976086;28;20038;-88
2022/02/25 10:56:42;;;;;;;8.73;6.00;;;;;;;11.89;34.21;99653.75;4980944;28;20030;-87
2022/02/25 10:59:10;;;;;;;5.80;3.83;;;;;;;12.99;34.80;99801.97;4947419;29;20094;-86
2022/02/25 11:01:37;;;;;;;7.25;5.63;;;;;;;12.93;34.64;99777.03;4938239;29;20012;-86
2022/02/25 11:04:08;;;;;;;5.93;4.28;;;;;;;13.14;34.33;99810.69;4938607;29;20034;-87
2022/02/25 11:06:34;;;;;;;5.78;4.05;;;;;;;12.39;34.48;99692.66;4963288;28;20054;-87
2022/02/25 11:09:01;;;;;;;6.47;4.80;;;;;;;13.16;34.24;99800.72;4975270;28;20054;-87
2022/02/25 11:11:29;;;;;;;6.78;4.38;;;;;;;12.94;34.23;99741.56;4958325;28;20027;-87
2022/02/25 11:13:55;;;;;;;5.30;4.22;;;;;;;13.09;33.80;99757.41;4958063;28;20022;-87
2022/02/25 11:16:21;;;;;;;7.10;3.72;;;;;;;12.95;33.71;99713.25;4976357;28;20105;-87
2022/02/25 11:18:49;;;;;;;6.15;4.35;;;;;;;13.37;33.58;99773.41;4989032;28;20030;-85
2022/02/25 11:21:17;;;;;;;4.55;3.90;;;;;;;12.83;33.46;99673.16;4976469;28;20087;-87
2022/02/25 11:23:44;;;;;;;6.32;4.45;;;;;;;13.52;33.54;99750.31;4978528;28;20027;-86
2022/02/25 11:26:16;;;;;;;3.78;3.47;;;;;;;12.99;32.92;99670.25;4967783;28;20523;-87
2022/02/25 11:28:42;;;;;;;4.53;4.13;;;;;;;12.34;32.88;99609.50;4970628;28;20019;-87
2022/02/25 11:31:15;;;;;;;5.05;3.28;;;;;;;12.53;32.68;99585.03;4940979;29;20031;-88
2022/02/25 11:33:41;;;;;;;5.25;3.70;;;;;;;11.93;33.21;99488.34;4953761;29;20231;-87